This is the latest recevied weather packets stored in our database for station/object N0SWP-3. If no packets are shown the sender has not sent any weather packets the latest 10 day(s).
| Time | Temp. | Humidity | Pressure | Rain* | Wind** | Luminosity | Snow |
|---|---|---|---|---|---|---|---|
| 1777657504 | 20° C | 33% | 1019.5 hPa | 0 mm | - | - | - |
| 1777655703 | 19.44° C | 31% | 1019.7 hPa | 0 mm | - | - | - |
| 1777655163 | 18.89° C | 34% | 1019.6 hPa | 0 mm | - | - | - |
| 1777654803 | 18.33° C | 36% | 1019.6 hPa | 0 mm | - | - | - |
| 1777653723 | 17.78° C | 37% | 1019.7 hPa | 0 mm | - | - | - |
| 1777650843 | 15.56° C | 45% | 1019.7 hPa | 0 mm | - | - | - |
| 1777649403 | 14.44° C | 47% | 1019.7 hPa | 0 mm | - | - | - |
| 1777649044 | 14.44° C | 45% | 1019.7 hPa | 0 mm | - | - | - |
| 1777648863 | 14.44° C | 44% | 1019.7 hPa | 0 mm | - | - | - |
| 1777647963 | 13.89° C | 52% | 1019.7 hPa | 0 mm | - | - | - |
| 1777646344 | 12.22° C | 58% | 1019.7 hPa | 0 mm | - | - | - |
| 1777645623 | 12.22° C | 63% | 1019.7 hPa | 0 mm | - | - | - |
| 1777645443 | 12.22° C | 65% | 1019.6 hPa | 0 mm | - | - | - |
| 1777645083 | 11.67° C | 68% | 1019.7 hPa | 0 mm | - | - | - |
| 1777643823 | 10° C | 74% | 1019.9 hPa | 0 mm | - | - | - |
| 1777643463 | 9.44° C | 77% | 1020 hPa | 0 mm | - | - | - |
| 1777642743 | 8.89° C | 82% | 1020.1 hPa | 0 mm | - | - | - |
| 1777642563 | 8.33° C | 85% | 1020.1 hPa | 0 mm | - | - | - |
| 1777642203 | 7.78° C | 85% | 1020.2 hPa | 0 mm | - | - | - |
| 1777642023 | 7.22° C | 86% | 1020.2 hPa | 0 mm | - | - | - |
| 1777641663 | 6.67° C | 88% | 1020.2 hPa | 0 mm | - | - | - |
| 1777640763 | 6.11° C | 93% | 1020.3 hPa | 0 mm | - | - | - |
| 1777640583 | 5.56° C | 93% | 1020.3 hPa | 0 mm | - | - | - |
| 1777640223 | 5.56° C | 94% | 1020.3 hPa | 0 mm | - | - | - |
| 1777636263 | 3.89° C | 95% | 1019.6 hPa | 0 mm | - | - | - |
* Rain latest hour (hover to see other rain measurements)
** Current wind speed in m/s (hover to see current wind gust speed)